sensor_id;sensor_type;location;lat;lon;timestamp;temperature;humidity
68924;DHT22;55961;52.156;20.942;2024-01-11T00:00:36;-6.90;80.90
68924;DHT22;55961;52.156;20.942;2024-01-11T00:03:22;-6.90;81.00
68924;DHT22;55961;52.156;20.942;2024-01-11T00:05:49;-6.90;81.00
68924;DHT22;55961;52.156;20.942;2024-01-11T00:08:14;-6.90;81.20
68924;DHT22;55961;52.156;20.942;2024-01-11T00:10:40;-6.80;81.20
68924;DHT22;55961;52.156;20.942;2024-01-11T00:13:06;-6.80;81.40
68924;DHT22;55961;52.156;20.942;2024-01-11T00:15:32;-6.80;81.50
68924;DHT22;55961;52.156;20.942;2024-01-11T00:17:58;-6.80;81.60
68924;DHT22;55961;52.156;20.942;2024-01-11T00:20:24;-6.80;81.60
68924;DHT22;55961;52.156;20.942;2024-01-11T00:22:50;-6.80;81.60
68924;DHT22;55961;52.156;20.942;2024-01-11T00:25:17;-6.80;81.60
68924;DHT22;55961;52.156;20.942;2024-01-11T00:27:43;-6.80;81.60
68924;DHT22;55961;52.156;20.942;2024-01-11T00:30:09;-6.80;81.60
68924;DHT22;55961;52.156;20.942;2024-01-11T00:32:35;-6.70;81.60
68924;DHT22;55961;52.156;20.942;2024-01-11T00:35:01;-6.70;81.50
68924;DHT22;55961;52.156;20.942;2024-01-11T00:37:26;-6.70;81.60
68924;DHT22;55961;52.156;20.942;2024-01-11T00:39:52;-6.70;81.60
68924;DHT22;55961;52.156;20.942;2024-01-11T00:42:18;-6.70;81.60
68924;DHT22;55961;52.156;20.942;2024-01-11T00:44:44;-6.70;81.60
68924;DHT22;55961;52.156;20.942;2024-01-11T00:47:10;-6.60;81.60
68924;DHT22;55961;52.156;20.942;2024-01-11T00:49:37;-6.60;81.60
68924;DHT22;55961;52.156;20.942;2024-01-11T00:52:05;-6.60;81.30
68924;DHT22;55961;52.156;20.942;2024-01-11T00:54:31;-6.60;81.30
68924;DHT22;55961;52.156;20.942;2024-01-11T00:56:57;-6.60;81.30
68924;DHT22;55961;52.156;20.942;2024-01-11T00:59:23;-6.60;81.30
68924;DHT22;55961;52.156;20.942;2024-01-11T01:01:49;-6.60;81.20
68924;DHT22;55961;52.156;20.942;2024-01-11T01:04:16;-6.60;81.30
68924;DHT22;55961;52.156;20.942;2024-01-11T01:06:42;-6.60;81.30
68924;DHT22;55961;52.156;20.942;2024-01-11T01:09:08;-6.60;81.20
68924;DHT22;55961;52.156;20.942;2024-01-11T01:11:34;-6.60;81.50
68924;DHT22;55961;52.156;20.942;2024-01-11T01:14:00;-6.60;81.50
68924;DHT22;55961;52.156;20.942;2024-01-11T01:16:26;-6.60;81.50
68924;DHT22;55961;52.156;20.942;2024-01-11T01:18:52;-6.60;81.60
68924;DHT22;55961;52.156;20.942;2024-01-11T01:21:18;-6.60;81.80
68924;DHT22;55961;52.156;20.942;2024-01-11T01:23:44;-6.60;81.80
68924;DHT22;55961;52.156;20.942;2024-01-11T01:26:11;-6.70;82.00
68924;DHT22;55961;52.156;20.942;2024-01-11T01:28:37;-6.70;82.30
68924;DHT22;55961;52.156;20.942;2024-01-11T01:31:03;-6.70;82.50
68924;DHT22;55961;52.156;20.942;2024-01-11T01:33:29;-6.70;82.40
68924;DHT22;55961;52.156;20.942;2024-01-11T01:35:55;-6.70;82.60
68924;DHT22;55961;52.156;20.942;2024-01-11T01:38:21;-6.70;82.80
68924;DHT22;55961;52.156;20.942;2024-01-11T01:40:47;-6.70;82.90
68924;DHT22;55961;52.156;20.942;2024-01-11T01:43:13;-6.70;82.90
68924;DHT22;55961;52.156;20.942;2024-01-11T01:45:40;-6.70;83.10
68924;DHT22;55961;52.156;20.942;2024-01-11T01:48:07;-6.70;83.10
68924;DHT22;55961;52.156;20.942;2024-01-11T01:50:33;-6.70;83.10
68924;DHT22;55961;52.156;20.942;2024-01-11T01:52:59;-6.70;83.00
68924;DHT22;55961;52.156;20.942;2024-01-11T01:55:26;-6.70;83.30
68924;DHT22;55961;52.156;20.942;2024-01-11T01:57:53;-6.70;83.20
68924;DHT22;55961;52.156;20.942;2024-01-11T02:00:20;-6.80;83.30
68924;DHT22;55961;52.156;20.942;2024-01-11T02:02:50;-6.70;83.50
68924;DHT22;55961;52.156;20.942;2024-01-11T02:05:16;-6.80;83.40
68924;DHT22;55961;52.156;20.942;2024-01-11T02:07:44;-6.80;83.50
68924;DHT22;55961;52.156;20.942;2024-01-11T02:10:10;-6.80;83.40
68924;DHT22;55961;52.156;20.942;2024-01-11T02:12:36;-6.70;83.40
68924;DHT22;55961;52.156;20.942;2024-01-11T02:15:03;-6.80;83.50
68924;DHT22;55961;52.156;20.942;2024-01-11T02:17:30;-6.80;83.70
68924;DHT22;55961;52.156;20.942;2024-01-11T02:19:56;-6.80;83.70
68924;DHT22;55961;52.156;20.942;2024-01-11T02:22:28;-6.80;83.80
68924;DHT22;55961;52.156;20.942;2024-01-11T02:24:55;-6.80;83.80
68924;DHT22;55961;52.156;20.942;2024-01-11T02:27:21;-6.80;83.80
68924;DHT22;55961;52.156;20.942;2024-01-11T02:29:47;-6.80;83.90
68924;DHT22;55961;52.156;20.942;2024-01-11T02:32:14;-6.80;84.10
68924;DHT22;55961;52.156;20.942;2024-01-11T02:34:40;-6.80;84.30
68924;DHT22;55961;52.156;20.942;2024-01-11T02:37:06;-6.80;84.20
68924;DHT22;55961;52.156;20.942;2024-01-11T02:39:32;-6.80;84.40
68924;DHT22;55961;52.156;20.942;2024-01-11T02:41:59;-6.80;84.40
68924;DHT22;55961;52.156;20.942;2024-01-11T02:44:25;-6.80;84.50
68924;DHT22;55961;52.156;20.942;2024-01-11T02:46:52;-6.80;84.60
68924;DHT22;55961;52.156;20.942;2024-01-11T02:49:18;-6.80;84.70
68924;DHT22;55961;52.156;20.942;2024-01-11T02:51:44;-6.80;84.70
68924;DHT22;55961;52.156;20.942;2024-01-11T02:54:10;-6.70;84.60
68924;DHT22;55961;52.156;20.942;2024-01-11T02:56:36;-6.70;84.70
68924;DHT22;55961;52.156;20.942;2024-01-11T02:59:02;-6.70;84.70
68924;DHT22;55961;52.156;20.942;2024-01-11T03:01:28;-6.70;84.90
68924;DHT22;55961;52.156;20.942;2024-01-11T03:03:54;-6.70;84.90
68924;DHT22;55961;52.156;20.942;2024-01-11T03:06:21;-6.70;85.00
68924;DHT22;55961;52.156;20.942;2024-01-11T03:08:50;-6.70;85.30
68924;DHT22;55961;52.156;20.942;2024-01-11T03:11:16;-6.70;85.40
68924;DHT22;55961;52.156;20.942;2024-01-11T03:13:43;-6.60;85.40
68924;DHT22;55961;52.156;20.942;2024-01-11T03:16:09;-6.60;85.90
68924;DHT22;55961;52.156;20.942;2024-01-11T03:18:35;-6.60;86.20
68924;DHT22;55961;52.156;20.942;2024-01-11T03:21:01;-6.60;86.50
68924;DHT22;55961;52.156;20.942;2024-01-11T03:23:27;-6.60;87.00
68924;DHT22;55961;52.156;20.942;2024-01-11T03:25:53;-6.60;87.30
68924;DHT22;55961;52.156;20.942;2024-01-11T03:28:19;-6.60;87.70
68924;DHT22;55961;52.156;20.942;2024-01-11T03:30:45;-6.60;88.20
68924;DHT22;55961;52.156;20.942;2024-01-11T03:33:10;-6.60;88.40
68924;DHT22;55961;52.156;20.942;2024-01-11T03:35:37;-6.60;88.60
68924;DHT22;55961;52.156;20.942;2024-01-11T03:38:07;-6.60;89.00
68924;DHT22;55961;52.156;20.942;2024-01-11T03:40:33;-6.60;89.30
68924;DHT22;55961;52.156;20.942;2024-01-11T03:42:59;-6.60;89.70
68924;DHT22;55961;52.156;20.942;2024-01-11T03:45:25;-6.60;90.10
68924;DHT22;55961;52.156;20.942;2024-01-11T03:47:51;-6.60;90.20
68924;DHT22;55961;52.156;20.942;2024-01-11T03:50:17;-6.60;90.70
68924;DHT22;55961;52.156;20.942;2024-01-11T03:52:45;-6.60;90.70
68924;DHT22;55961;52.156;20.942;2024-01-11T03:55:11;-6.60;91.00
68924;DHT22;55961;52.156;20.942;2024-01-11T03:57:37;-6.60;90.90
68924;DHT22;55961;52.156;20.942;2024-01-11T04:00:03;-6.60;91.00
68924;DHT22;55961;52.156;20.942;2024-01-11T04:02:31;-6.60;91.70
68924;DHT22;55961;52.156;20.942;2024-01-11T04:04:57;-6.60;91.80
68924;DHT22;55961;52.156;20.942;2024-01-11T04:07:23;-6.50;92.10
68924;DHT22;55961;52.156;20.942;2024-01-11T04:09:50;-6.60;92.10
68924;DHT22;55961;52.156;20.942;2024-01-11T04:12:16;-6.50;92.20
68924;DHT22;55961;52.156;20.942;2024-01-11T04:14:42;-6.50;92.60
68924;DHT22;55961;52.156;20.942;2024-01-11T04:17:07;-6.50;92.80
68924;DHT22;55961;52.156;20.942;2024-01-11T04:19:34;-6.50;92.90
68924;DHT22;55961;52.156;20.942;2024-01-11T04:21:59;-6.60;93.20
68924;DHT22;55961;52.156;20.942;2024-01-11T04:24:26;-6.60;93.60
68924;DHT22;55961;52.156;20.942;2024-01-11T04:26:51;-6.60;93.90
68924;DHT22;55961;52.156;20.942;2024-01-11T04:29:17;-6.60;94.10
68924;DHT22;55961;52.156;20.942;2024-01-11T04:31:44;-6.60;94.40
68924;DHT22;55961;52.156;20.942;2024-01-11T04:34:10;-6.60;94.20
68924;DHT22;55961;52.156;20.942;2024-01-11T04:36:39;-6.60;94.80
68924;DHT22;55961;52.156;20.942;2024-01-11T04:39:05;-6.60;94.90
68924;DHT22;55961;52.156;20.942;2024-01-11T04:41:36;-6.50;95.10
68924;DHT22;55961;52.156;20.942;2024-01-11T04:44:05;-6.50;95.20
68924;DHT22;55961;52.156;20.942;2024-01-11T04:46:31;-6.50;95.40
68924;DHT22;55961;52.156;20.942;2024-01-11T04:48:57;-6.50;95.90
68924;DHT22;55961;52.156;20.942;2024-01-11T04:51:23;-6.50;96.00
68924;DHT22;55961;52.156;20.942;2024-01-11T04:53:49;-6.50;96.20
68924;DHT22;55961;52.156;20.942;2024-01-11T04:56:16;-6.50;96.70
68924;DHT22;55961;52.156;20.942;2024-01-11T04:58:43;-6.50;96.50
68924;DHT22;55961;52.156;20.942;2024-01-11T05:01:16;-6.50;97.00
68924;DHT22;55961;52.156;20.942;2024-01-11T05:03:43;-6.50;97.00
68924;DHT22;55961;52.156;20.942;2024-01-11T05:06:16;-6.50;97.50
68924;DHT22;55961;52.156;20.942;2024-01-11T05:08:43;-6.50;97.60
68924;DHT22;55961;52.156;20.942;2024-01-11T05:11:20;-6.40;98.00
68924;DHT22;55961;52.156;20.942;2024-01-11T05:13:48;-6.50;98.10
68924;DHT22;55961;52.156;20.942;2024-01-11T05:16:23;-6.50;98.40
68924;DHT22;55961;52.156;20.942;2024-01-11T05:18:54;-6.50;98.80
68924;DHT22;55961;52.156;20.942;2024-01-11T05:21:20;-6.40;98.90
68924;DHT22;55961;52.156;20.942;2024-01-11T05:23:47;-6.50;99.30
68924;DHT22;55961;52.156;20.942;2024-01-11T05:26:15;-6.40;99.40
68924;DHT22;55961;52.156;20.942;2024-01-11T05:28:41;-6.40;99.50
68924;DHT22;55961;52.156;20.942;2024-01-11T05:31:11;-6.40;99.60
68924;DHT22;55961;52.156;20.942;2024-01-11T05:33:38;-6.40;99.40
68924;DHT22;55961;52.156;20.942;2024-01-11T05:36:05;-6.40;99.40
68924;DHT22;55961;52.156;20.942;2024-01-11T05:38:31;-6.40;99.40
68924;DHT22;55961;52.156;20.942;2024-01-11T05:40:57;-6.40;99.40
68924;DHT22;55961;52.156;20.942;2024-01-11T05:43:23;-6.30;99.10
68924;DHT22;55961;52.156;20.942;2024-01-11T05:45:49;-6.30;98.80
68924;DHT22;55961;52.156;20.942;2024-01-11T05:48:16;-6.30;98.80
68924;DHT22;55961;52.156;20.942;2024-01-11T05:50:46;-6.40;98.60
68924;DHT22;55961;52.156;20.942;2024-01-11T05:53:12;-6.30;98.40
68924;DHT22;55961;52.156;20.942;2024-01-11T05:55:39;-6.30;98.30
68924;DHT22;55961;52.156;20.942;2024-01-11T05:58:05;-6.30;98.20
68924;DHT22;55961;52.156;20.942;2024-01-11T06:00:31;-6.30;98.00
68924;DHT22;55961;52.156;20.942;2024-01-11T06:02:57;-6.30;97.90
68924;DHT22;55961;52.156;20.942;2024-01-11T06:05:23;-6.30;98.00
68924;DHT22;55961;52.156;20.942;2024-01-11T06:07:50;-6.30;97.90
68924;DHT22;55961;52.156;20.942;2024-01-11T06:10:15;-6.30;97.90
68924;DHT22;55961;52.156;20.942;2024-01-11T06:12:42;-6.30;97.90
68924;DHT22;55961;52.156;20.942;2024-01-11T06:15:09;-6.20;98.10
68924;DHT22;55961;52.156;20.942;2024-01-11T06:17:35;-6.20;98.00
68924;DHT22;55961;52.156;20.942;2024-01-11T06:20:01;-6.20;97.90
68924;DHT22;55961;52.156;20.942;2024-01-11T06:22:28;-6.20;97.90
68924;DHT22;55961;52.156;20.942;2024-01-11T06:24:54;-6.20;97.80
68924;DHT22;55961;52.156;20.942;2024-01-11T06:27:20;-6.10;97.80
68924;DHT22;55961;52.156;20.942;2024-01-11T06:29:45;-6.10;97.60
68924;DHT22;55961;52.156;20.942;2024-01-11T06:32:11;-6.10;97.50
68924;DHT22;55961;52.156;20.942;2024-01-11T06:34:38;-6.00;97.60
68924;DHT22;55961;52.156;20.942;2024-01-11T06:37:04;-6.00;97.80
68924;DHT22;55961;52.156;20.942;2024-01-11T06:39:29;-6.00;97.80
68924;DHT22;55961;52.156;20.942;2024-01-11T06:41:56;-6.00;97.80
68924;DHT22;55961;52.156;20.942;2024-01-11T06:44:21;-6.00;97.70
68924;DHT22;55961;52.156;20.942;2024-01-11T06:46:48;-5.90;97.80
68924;DHT22;55961;52.156;20.942;2024-01-11T06:49:13;-5.90;97.90
68924;DHT22;55961;52.156;20.942;2024-01-11T06:51:40;-5.90;97.70
68924;DHT22;55961;52.156;20.942;2024-01-11T06:54:07;-5.90;98.00
68924;DHT22;55961;52.156;20.942;2024-01-11T06:56:33;-5.90;98.00
68924;DHT22;55961;52.156;20.942;2024-01-11T06:58:59;-5.80;98.20
68924;DHT22;55961;52.156;20.942;2024-01-11T07:01:25;-5.80;98.40
68924;DHT22;55961;52.156;20.942;2024-01-11T07:03:51;-5.80;99.00
68924;DHT22;55961;52.156;20.942;2024-01-11T07:06:17;-5.80;99.50
68924;DHT22;55961;52.156;20.942;2024-01-11T07:08:43;-5.80;99.70
68924;DHT22;55961;52.156;20.942;2024-01-11T07:11:10;-5.70;99.90
68924;DHT22;55961;52.156;20.942;2024-01-11T07:13:36;-5.70;99.90
68924;DHT22;55961;52.156;20.942;2024-01-11T07:16:03;-5.70;99.90
68924;DHT22;55961;52.156;20.942;2024-01-11T07:18:29;-5.70;99.90
68924;DHT22;55961;52.156;20.942;2024-01-11T07:20:57;-5.70;99.90
68924;DHT22;55961;52.156;20.942;2024-01-11T07:23:24;-5.70;99.90
68924;DHT22;55961;52.156;20.942;2024-01-11T07:25:50;-5.70;99.90
68924;DHT22;55961;52.156;20.942;2024-01-11T07:28:16;-5.60;99.90
68924;DHT22;55961;52.156;20.942;2024-01-11T07:30:43;-5.60;99.90
68924;DHT22;55961;52.156;20.942;2024-01-11T07:33:10;-5.60;99.90
68924;DHT22;55961;52.156;20.942;2024-01-11T07:35:36;-5.60;99.90
68924;DHT22;55961;52.156;20.942;2024-01-11T07:38:02;-5.50;99.90
68924;DHT22;55961;52.156;20.942;2024-01-11T07:40:28;-5.50;99.90
68924;DHT22;55961;52.156;20.942;2024-01-11T07:42:54;-5.50;99.90
68924;DHT22;55961;52.156;20.942;2024-01-11T07:45:20;-5.50;99.90
68924;DHT22;55961;52.156;20.942;2024-01-11T07:47:46;-5.40;99.90
68924;DHT22;55961;52.156;20.942;2024-01-11T07:50:12;-5.40;99.90
68924;DHT22;55961;52.156;20.942;2024-01-11T07:52:39;-5.40;99.90
68924;DHT22;55961;52.156;20.942;2024-01-11T07:55:08;-5.40;99.90
68924;DHT22;55961;52.156;20.942;2024-01-11T07:57:35;-5.40;99.90
68924;DHT22;55961;52.156;20.942;2024-01-11T08:00:02;-5.30;99.90
68924;DHT22;55961;52.156;20.942;2024-01-11T08:02:29;-5.30;99.90
68924;DHT22;55961;52.156;20.942;2024-01-11T08:04:55;-5.30;99.90
68924;DHT22;55961;52.156;20.942;2024-01-11T08:07:21;-5.30;99.90
68924;DHT22;55961;52.156;20.942;2024-01-11T08:09:47;-5.30;99.90
68924;DHT22;55961;52.156;20.942;2024-01-11T08:12:16;-5.30;99.90
68924;DHT22;55961;52.156;20.942;2024-01-11T08:14:42;-5.20;99.90
68924;DHT22;55961;52.156;20.942;2024-01-11T08:17:08;-5.20;99.90
68924;DHT22;55961;52.156;20.942;2024-01-11T08:19:35;-5.20;99.90
68924;DHT22;55961;52.156;20.942;2024-01-11T08:22:01;-5.20;99.90
68924;DHT22;55961;52.156;20.942;2024-01-11T08:24:28;-5.20;99.90
68924;DHT22;55961;52.156;20.942;2024-01-11T08:26:54;-5.10;99.90
68924;DHT22;55961;52.156;20.942;2024-01-11T08:29:20;-5.10;99.90
68924;DHT22;55961;52.156;20.942;2024-01-11T08:31:46;-5.10;99.90
68924;DHT22;55961;52.156;20.942;2024-01-11T08:34:12;-5.00;99.90
68924;DHT22;55961;52.156;20.942;2024-01-11T08:36:38;-5.00;99.90
68924;DHT22;55961;52.156;20.942;2024-01-11T08:39:05;-5.00;99.90
68924;DHT22;55961;52.156;20.942;2024-01-11T08:41:32;-4.90;99.90
68924;DHT22;55961;52.156;20.942;2024-01-11T08:43:58;-4.90;99.90
68924;DHT22;55961;52.156;20.942;2024-01-11T08:46:27;-4.90;99.90
68924;DHT22;55961;52.156;20.942;2024-01-11T08:48:56;-4.90;99.90
68924;DHT22;55961;52.156;20.942;2024-01-11T08:51:22;-4.90;99.90
68924;DHT22;55961;52.156;20.942;2024-01-11T08:53:48;-4.90;99.90
68924;DHT22;55961;52.156;20.942;2024-01-11T08:56:14;-4.90;99.90
68924;DHT22;55961;52.156;20.942;2024-01-11T08:58:42;-4.80;99.90
68924;DHT22;55961;52.156;20.942;2024-01-11T09:01:08;-4.80;99.90
68924;DHT22;55961;52.156;20.942;2024-01-11T09:03:35;-4.80;99.90
68924;DHT22;55961;52.156;20.942;2024-01-11T09:06:04;-4.80;99.90
68924;DHT22;55961;52.156;20.942;2024-01-11T09:08:30;-4.80;99.90
68924;DHT22;55961;52.156;20.942;2024-01-11T09:10:56;-4.80;99.90
68924;DHT22;55961;52.156;20.942;2024-01-11T09:13:24;-4.80;99.90
68924;DHT22;55961;52.156;20.942;2024-01-11T09:15:52;-4.70;99.90
68924;DHT22;55961;52.156;20.942;2024-01-11T09:18:18;-4.70;99.90
68924;DHT22;55961;52.156;20.942;2024-01-11T09:20:44;-4.70;99.90
68924;DHT22;55961;52.156;20.942;2024-01-11T09:23:11;-4.70;99.90
68924;DHT22;55961;52.156;20.942;2024-01-11T09:25:37;-4.70;99.90
68924;DHT22;55961;52.156;20.942;2024-01-11T09:28:03;-4.60;99.90
68924;DHT22;55961;52.156;20.942;2024-01-11T09:30:29;-4.60;99.90
68924;DHT22;55961;52.156;20.942;2024-01-11T09:32:55;-4.60;99.90
68924;DHT22;55961;52.156;20.942;2024-01-11T09:35:22;-4.60;99.90
68924;DHT22;55961;52.156;20.942;2024-01-11T09:37:49;-4.50;99.90
68924;DHT22;55961;52.156;20.942;2024-01-11T09:40:16;-4.50;99.90
68924;DHT22;55961;52.156;20.942;2024-01-11T09:42:43;-4.50;99.90
68924;DHT22;55961;52.156;20.942;2024-01-11T09:45:16;-4.50;99.90
68924;DHT22;55961;52.156;20.942;2024-01-11T09:47:43;-4.40;99.90
68924;DHT22;55961;52.156;20.942;2024-01-11T09:50:16;-4.40;99.90
68924;DHT22;55961;52.156;20.942;2024-01-11T09:52:48;-4.30;99.90
68924;DHT22;55961;52.156;20.942;2024-01-11T09:55:15;-4.30;99.90
68924;DHT22;55961;52.156;20.942;2024-01-11T09:57:46;-4.30;99.90
68924;DHT22;55961;52.156;20.942;2024-01-11T10:00:21;-4.20;99.90
68924;DHT22;55961;52.156;20.942;2024-01-11T10:02:48;-4.20;99.90
68924;DHT22;55961;52.156;20.942;2024-01-11T10:05:14;-4.20;99.90
68924;DHT22;55961;52.156;20.942;2024-01-11T10:07:40;-4.10;99.90
68924;DHT22;55961;52.156;20.942;2024-01-11T10:10:07;-4.10;99.90
68924;DHT22;55961;52.156;20.942;2024-01-11T10:12:37;-4.10;99.90
68924;DHT22;55961;52.156;20.942;2024-01-11T10:15:07;-4.00;99.90
68924;DHT22;55961;52.156;20.942;2024-01-11T10:17:45;-4.00;99.90
68924;DHT22;55961;52.156;20.942;2024-01-11T10:20:12;-4.00;99.90
68924;DHT22;55961;52.156;20.942;2024-01-11T10:22:40;-4.00;99.90
68924;DHT22;55961;52.156;20.942;2024-01-11T10:25:14;-4.00;99.90
68924;DHT22;55961;52.156;20.942;2024-01-11T10:27:42;-4.00;99.90
68924;DHT22;55961;52.156;20.942;2024-01-11T10:30:12;-4.00;99.90
68924;DHT22;55961;52.156;20.942;2024-01-11T10:32:39;-4.00;99.90
68924;DHT22;55961;52.156;20.942;2024-01-11T10:35:05;-4.00;99.90
68924;DHT22;55961;52.156;20.942;2024-01-11T10:37:32;-4.00;99.90
68924;DHT22;55961;52.156;20.942;2024-01-11T10:40:03;-4.00;99.90
68924;DHT22;55961;52.156;20.942;2024-01-11T10:42:36;-3.90;99.90
68924;DHT22;55961;52.156;20.942;2024-01-11T10:45:03;-3.90;99.90
68924;DHT22;55961;52.156;20.942;2024-01-11T10:47:34;-3.90;99.90
68924;DHT22;55961;52.156;20.942;2024-01-11T10:50:03;-3.90;99.90
68924;DHT22;55961;52.156;20.942;2024-01-11T10:52:36;-3.90;99.90
68924;DHT22;55961;52.156;20.942;2024-01-11T10:55:08;-3.90;99.90
68924;DHT22;55961;52.156;20.942;2024-01-11T10:57:34;-3.80;99.90
68924;DHT22;55961;52.156;20.942;2024-01-11T11:00:01;-3.80;99.90
68924;DHT22;55961;52.156;20.942;2024-01-11T11:02:29;-3.80;99.90
68924;DHT22;55961;52.156;20.942;2024-01-11T11:04:59;-3.80;99.90
68924;DHT22;55961;52.156;20.942;2024-01-11T11:07:25;-3.80;99.90
68924;DHT22;55961;52.156;20.942;2024-01-11T11:09:53;-3.70;99.90
68924;DHT22;55961;52.156;20.942;2024-01-11T11:12:21;-3.80;99.90
68924;DHT22;55961;52.156;20.942;2024-01-11T11:14:48;-3.70;99.90
68924;DHT22;55961;52.156;20.942;2024-01-11T11:17:16;-3.70;99.90
68924;DHT22;55961;52.156;20.942;2024-01-11T11:19:42;-3.70;99.90
68924;DHT22;55961;52.156;20.942;2024-01-11T11:22:08;-3.70;99.90
68924;DHT22;55961;52.156;20.942;2024-01-11T11:24:34;-3.70;99.90
68924;DHT22;55961;52.156;20.942;2024-01-11T11:27:01;-3.70;99.90
68924;DHT22;55961;52.156;20.942;2024-01-11T11:29:27;-3.70;99.90
68924;DHT22;55961;52.156;20.942;2024-01-11T11:31:53;-3.70;99.90
68924;DHT22;55961;52.156;20.942;2024-01-11T11:34:20;-3.60;99.90
68924;DHT22;55961;52.156;20.942;2024-01-11T11:36:46;-3.60;99.90
68924;DHT22;55961;52.156;20.942;2024-01-11T11:39:13;-3.60;99.90
68924;DHT22;55961;52.156;20.942;2024-01-11T11:41:40;-3.60;99.90
68924;DHT22;55961;52.156;20.942;2024-01-11T11:44:12;-3.60;99.90
68924;DHT22;55961;52.156;20.942;2024-01-11T11:46:39;-3.70;99.90
68924;DHT22;55961;52.156;20.942;2024-01-11T11:49:05;-3.60;99.90
68924;DHT22;55961;52.156;20.942;2024-01-11T11:51:32;-3.60;99.90
68924;DHT22;55961;52.156;20.942;2024-01-11T11:53:58;-3.60;99.90
68924;DHT22;55961;52.156;20.942;2024-01-11T11:56:25;-3.60;99.90
68924;DHT22;55961;52.156;20.942;2024-01-11T11:58:52;-3.50;99.90
68924;DHT22;55961;52.156;20.942;2024-01-11T12:01:21;-3.50;99.90
68924;DHT22;55961;52.156;20.942;2024-01-11T12:03:46;-3.50;99.90
68924;DHT22;55961;52.156;20.942;2024-01-11T12:06:19;-3.50;99.90
68924;DHT22;55961;52.156;20.942;2024-01-11T12:08:47;-3.40;99.90
68924;DHT22;55961;52.156;20.942;2024-01-11T12:11:21;-3.40;99.90
68924;DHT22;55961;52.156;20.942;2024-01-11T12:13:48;-3.40;99.90
68924;DHT22;55961;52.156;20.942;2024-01-11T12:16:14;-3.40;99.90
68924;DHT22;55961;52.156;20.942;2024-01-11T12:18:41;-3.40;99.90
68924;DHT22;55961;52.156;20.942;2024-01-11T12:21:08;-3.40;99.90
68924;DHT22;55961;52.156;20.942;2024-01-11T12:23:37;-3.30;99.90
68924;DHT22;55961;52.156;20.942;2024-01-11T12:26:06;-3.30;99.90
68924;DHT22;55961;52.156;20.942;2024-01-11T12:28:37;-3.30;99.90
68924;DHT22;55961;52.156;20.942;2024-01-11T12:31:04;-3.20;99.90
68924;DHT22;55961;52.156;20.942;2024-01-11T12:33:29;-3.20;99.90
68924;DHT22;55961;52.156;20.942;2024-01-11T12:35:56;-3.20;99.90
68924;DHT22;55961;52.156;20.942;2024-01-11T12:38:22;-3.20;99.90
68924;DHT22;55961;52.156;20.942;2024-01-11T12:40:48;-3.10;99.90
68924;DHT22;55961;52.156;20.942;2024-01-11T12:43:15;-3.10;99.90
68924;DHT22;55961;52.156;20.942;2024-01-11T12:45:42;-3.10;99.90
68924;DHT22;55961;52.156;20.942;2024-01-11T12:48:08;-3.10;99.90
68924;DHT22;55961;52.156;20.942;2024-01-11T12:50:35;-3.00;99.90
68924;DHT22;55961;52.156;20.942;2024-01-11T12:53:11;-3.00;99.90
68924;DHT22;55961;52.156;20.942;2024-01-11T12:55:47;-3.00;99.90
68924;DHT22;55961;52.156;20.942;2024-01-11T12:58:18;-3.00;99.90
68924;DHT22;55961;52.156;20.942;2024-01-11T13:00:45;-3.00;99.90
68924;DHT22;55961;52.156;20.942;2024-01-11T13:03:11;-2.90;99.90
68924;DHT22;55961;52.156;20.942;2024-01-11T13:05:38;-2.90;99.90
68924;DHT22;55961;52.156;20.942;2024-01-11T13:08:10;-2.90;99.90
68924;DHT22;55961;52.156;20.942;2024-01-11T13:10:37;-2.90;99.90
68924;DHT22;55961;52.156;20.942;2024-01-11T13:13:04;-2.90;99.90
68924;DHT22;55961;52.156;20.942;2024-01-11T13:15:31;-2.80;99.90
68924;DHT22;55961;52.156;20.942;2024-01-11T13:18:00;-2.80;99.90
68924;DHT22;55961;52.156;20.942;2024-01-11T13:20:27;-2.80;99.90
68924;DHT22;55961;52.156;20.942;2024-01-11T13:23:17;-2.80;99.90
68924;DHT22;55961;52.156;20.942;2024-01-11T13:25:47;-2.70;99.90
68924;DHT22;55961;52.156;20.942;2024-01-11T13:28:13;-2.70;99.90
68924;DHT22;55961;52.156;20.942;2024-01-11T13:30:40;-2.70;99.90
68924;DHT22;55961;52.156;20.942;2024-01-11T13:33:07;-2.70;99.90
68924;DHT22;55961;52.156;20.942;2024-01-11T13:35:37;-2.70;99.90
68924;DHT22;55961;52.156;20.942;2024-01-11T13:38:04;-2.70;99.90
68924;DHT22;55961;52.156;20.942;2024-01-11T13:40:31;-2.70;99.90
68924;DHT22;55961;52.156;20.942;2024-01-11T13:42:57;-2.60;99.90
68924;DHT22;55961;52.156;20.942;2024-01-11T13:45:25;-2.60;99.90
68924;DHT22;55961;52.156;20.942;2024-01-11T13:47:51;-2.60;99.90
68924;DHT22;55961;52.156;20.942;2024-01-11T13:50:20;-2.50;99.90
68924;DHT22;55961;52.156;20.942;2024-01-11T13:52:46;-2.50;99.90
68924;DHT22;55961;52.156;20.942;2024-01-11T13:55:13;-2.50;99.90
68924;DHT22;55961;52.156;20.942;2024-01-11T13:57:39;-2.40;99.90
68924;DHT22;55961;52.156;20.942;2024-01-11T14:00:06;-2.40;99.90
68924;DHT22;55961;52.156;20.942;2024-01-11T14:02:32;-2.40;99.90
68924;DHT22;55961;52.156;20.942;2024-01-11T14:04:59;-2.40;99.90
68924;DHT22;55961;52.156;20.942;2024-01-11T14:07:25;-2.40;99.90
68924;DHT22;55961;52.156;20.942;2024-01-11T14:09:51;-2.40;99.90
68924;DHT22;55961;52.156;20.942;2024-01-11T14:12:17;-2.40;99.90
68924;DHT22;55961;52.156;20.942;2024-01-11T14:14:43;-2.40;99.90
68924;DHT22;55961;52.156;20.942;2024-01-11T14:17:09;-2.40;99.90
68924;DHT22;55961;52.156;20.942;2024-01-11T14:19:36;-2.30;99.90
68924;DHT22;55961;52.156;20.942;2024-01-11T14:22:01;-2.30;99.90
68924;DHT22;55961;52.156;20.942;2024-01-11T14:24:28;-2.30;99.90
68924;DHT22;55961;52.156;20.942;2024-01-11T14:26:54;-2.20;99.90
68924;DHT22;55961;52.156;20.942;2024-01-11T14:29:20;-2.20;99.90
68924;DHT22;55961;52.156;20.942;2024-01-11T14:31:46;-2.20;99.90
68924;DHT22;55961;52.156;20.942;2024-01-11T14:34:12;-2.20;99.90
68924;DHT22;55961;52.156;20.942;2024-01-11T14:36:38;-2.10;99.90
68924;DHT22;55961;52.156;20.942;2024-01-11T14:39:04;-2.10;99.90
68924;DHT22;55961;52.156;20.942;2024-01-11T14:41:31;-2.10;99.90
68924;DHT22;55961;52.156;20.942;2024-01-11T14:43:58;-2.10;99.90
68924;DHT22;55961;52.156;20.942;2024-01-11T14:46:26;-2.10;99.90
68924;DHT22;55961;52.156;20.942;2024-01-11T14:48:52;-2.00;99.90
68924;DHT22;55961;52.156;20.942;2024-01-11T14:51:18;-2.00;99.90
68924;DHT22;55961;52.156;20.942;2024-01-11T14:53:44;-2.00;99.90
68924;DHT22;55961;52.156;20.942;2024-01-11T14:56:11;-2.00;99.90
68924;DHT22;55961;52.156;20.942;2024-01-11T14:58:38;-1.90;99.90
68924;DHT22;55961;52.156;20.942;2024-01-11T15:01:04;-1.90;99.90
68924;DHT22;55961;52.156;20.942;2024-01-11T15:03:30;-1.90;99.90
68924;DHT22;55961;52.156;20.942;2024-01-11T15:05:56;-1.90;99.90
68924;DHT22;55961;52.156;20.942;2024-01-11T15:08:22;-1.90;99.90
68924;DHT22;55961;52.156;20.942;2024-01-11T15:10:48;-1.80;99.90
68924;DHT22;55961;52.156;20.942;2024-01-11T15:13:15;-1.80;99.90